createdAt,value
2023-01-26T00:01:12.248Z,62.20
2023-01-26T00:03:42.103Z,57.53
2023-01-26T00:06:11.421Z,60.63
2023-01-26T00:08:39.823Z,53.63
2023-01-26T00:11:08.818Z,53.28
2023-01-26T00:13:37.460Z,57.30
2023-01-26T00:16:06.021Z,53.17
2023-01-26T00:18:34.323Z,51.35
2023-01-26T00:21:04.395Z,60.40
2023-01-26T00:23:33.745Z,57.65
2023-01-26T00:26:02.217Z,54.00
2023-01-26T00:28:30.788Z,49.72
2023-01-26T00:31:03.936Z,51.47
2023-01-26T00:33:32.401Z,45.08
2023-01-26T00:36:00.731Z,54.13
2023-01-26T00:38:30.630Z,52.90
2023-01-26T00:40:58.899Z,45.13
2023-01-26T00:43:27.320Z,42.28
2023-01-26T00:45:55.589Z,42.60
2023-01-26T00:48:24.909Z,44.85
2023-01-26T00:50:53.348Z,44.20
2023-01-26T00:53:21.573Z,52.33
2023-01-26T00:55:53.484Z,45.63
2023-01-26T00:58:21.745Z,48.85
2023-01-26T01:00:51.002Z,55.33
2023-01-26T01:03:19.312Z,46.40
2023-01-26T01:05:48.900Z,52.10
2023-01-26T01:08:17.250Z,51.60
2023-01-26T01:10:45.606Z,47.35
2023-01-26T01:13:15.158Z,49.75
2023-01-26T01:15:43.469Z,42.00
2023-01-26T01:18:11.855Z,51.35
2023-01-26T01:20:42.073Z,42.88
2023-01-26T01:23:11.484Z,47.88
2023-01-26T01:25:39.773Z,47.38
2023-01-26T01:28:08.059Z,44.05
2023-01-26T01:30:39.374Z,41.25
2023-01-26T01:33:07.889Z,49.05
2023-01-26T01:35:36.217Z,47.17
2023-01-26T01:38:04.461Z,51.65
2023-01-26T01:40:32.868Z,43.22
2023-01-26T01:43:01.376Z,49.53
2023-01-26T01:45:37.610Z,44.47
2023-01-26T01:48:09.497Z,47.53
2023-01-26T01:50:39.369Z,50.10
2023-01-26T01:53:08.600Z,43.28
2023-01-26T01:55:37.155Z,49.33
2023-01-26T01:58:06.895Z,45.10
2023-01-26T02:00:35.148Z,45.17
2023-01-26T02:03:14.719Z,47.40
2023-01-26T02:05:49.219Z,44.45
2023-01-26T02:08:20.133Z,41.97
2023-01-26T02:10:50.599Z,44.78
2023-01-26T02:13:19.743Z,45.53
2023-01-26T02:15:48.393Z,46.05
2023-01-26T02:18:16.804Z,45.75
2023-01-26T02:20:47.563Z,43.17
2023-01-26T02:23:26.196Z,42.10
2023-01-26T02:26:12.661Z,44.95
2023-01-26T02:28:41.668Z,51.30
2023-01-26T02:31:10.203Z,43.55
2023-01-26T02:33:38.823Z,45.38
2023-01-26T02:36:08.391Z,46.40
2023-01-26T02:38:41.136Z,44.63
2023-01-26T02:41:10.690Z,43.42
2023-01-26T02:43:39.976Z,42.75
2023-01-26T02:46:08.377Z,47.38
2023-01-26T02:48:57.476Z,40.92
2023-01-26T02:51:25.734Z,48.22
2023-01-26T02:53:54.101Z,45.90
2023-01-26T02:56:21.380Z,39.65
2023-01-26T02:58:50.978Z,40.10
2023-01-26T03:01:20.069Z,36.40
2023-01-26T03:03:48.514Z,39.63
2023-01-26T03:06:17.221Z,39.25
2023-01-26T03:08:45.552Z,37.67
2023-01-26T03:11:13.758Z,42.70
2023-01-26T03:13:42.238Z,39.17
2023-01-26T03:16:12.158Z,38.97
2023-01-26T03:18:58.649Z,36.83
2023-01-26T03:21:44.423Z,45.85
2023-01-26T03:24:32.472Z,32.35
2023-01-26T03:27:20.384Z,36.55
2023-01-26T03:29:48.670Z,31.27
2023-01-26T03:32:18.353Z,39.92
2023-01-26T03:34:46.589Z,36.95
2023-01-26T03:37:14.933Z,34.97
2023-01-26T03:40:12.117Z,41.72
2023-01-26T03:42:58.721Z,34.15
2023-01-26T03:45:46.482Z,35.03
2023-01-26T03:48:33.890Z,37.45
2023-01-26T03:51:21.781Z,34.28
2023-01-26T03:54:07.786Z,38.05
2023-01-26T03:56:36.239Z,36.17
2023-01-26T03:59:10.002Z,30.30
2023-01-26T04:01:41.691Z,43.35
2023-01-26T04:04:30.331Z,41.85
2023-01-26T04:07:16.127Z,34.83
2023-01-26T04:09:49.182Z,33.85
2023-01-26T04:12:17.435Z,35.67
2023-01-26T04:15:15.005Z,35.17
2023-01-26T04:18:00.849Z,36.95
2023-01-26T04:20:48.521Z,31.63
2023-01-26T04:23:20.199Z,35.53
2023-01-26T04:25:49.796Z,34.10
2023-01-26T04:28:18.486Z,34.88
2023-01-26T04:30:49.565Z,39.97
2023-01-26T04:33:18.043Z,35.45
2023-01-26T04:35:47.590Z,37.92
2023-01-26T04:38:16.094Z,38.80
2023-01-26T04:40:44.616Z,38.00
2023-01-26T04:43:13.783Z,38.13
2023-01-26T04:45:42.067Z,39.42
2023-01-26T04:48:10.419Z,36.88
2023-01-26T04:50:38.711Z,37.92
2023-01-26T04:53:08.317Z,35.20
2023-01-26T04:55:36.517Z,35.28
2023-01-26T04:58:05.639Z,37.58
2023-01-26T05:00:33.986Z,39.13
2023-01-26T05:03:03.389Z,31.70
2023-01-26T05:05:31.611Z,36.53
2023-01-26T05:07:59.917Z,36.20
2023-01-26T05:10:32.018Z,32.42
2023-01-26T05:13:19.007Z,36.40
2023-01-26T05:16:06.251Z,40.60
2023-01-26T05:18:55.378Z,38.63
2023-01-26T05:21:47.076Z,34.28
2023-01-26T05:24:15.348Z,37.60
2023-01-26T05:27:23.148Z,40.55
2023-01-26T05:29:55.153Z,34.10
2023-01-26T05:32:23.793Z,38.45
2023-01-26T05:34:52.222Z,34.70
2023-01-26T05:37:20.713Z,33.42
2023-01-26T05:39:49.053Z,36.80
2023-01-26T05:42:19.318Z,39.00
2023-01-26T05:45:01.999Z,33.65
2023-01-26T05:47:31.394Z,32.00
2023-01-26T05:49:59.793Z,33.97
2023-01-26T05:52:31.744Z,32.70
2023-01-26T05:55:00.866Z,44.15
2023-01-26T05:57:30.787Z,36.67
2023-01-26T06:00:05.831Z,37.60
2023-01-26T06:02:42.158Z,31.88
2023-01-26T06:05:14.196Z,36.90
2023-01-26T06:07:44.836Z,34.28
2023-01-26T06:10:18.912Z,35.30
2023-01-26T06:13:14.369Z,34.95
2023-01-26T06:15:46.952Z,31.33
2023-01-26T06:18:15.877Z,37.15
2023-01-26T06:20:50.428Z,42.90
2023-01-26T06:23:18.714Z,38.83
2023-01-26T06:25:47.877Z,43.22
2023-01-26T06:28:17.966Z,35.75
2023-01-26T06:30:46.227Z,41.25
2023-01-26T06:33:14.652Z,39.13
2023-01-26T06:35:43.065Z,48.55
2023-01-26T06:38:15.689Z,42.05
2023-01-26T06:40:44.281Z,38.33
2023-01-26T06:43:12.506Z,43.45
2023-01-26T06:45:42.773Z,34.67
2023-01-26T06:48:11.264Z,42.25
2023-01-26T06:50:41.464Z,40.50
2023-01-26T06:53:26.608Z,42.85
2023-01-26T06:56:13.722Z,51.58
2023-01-26T06:58:59.421Z,46.08
2023-01-26T07:01:43.150Z,52.70
2023-01-26T07:04:11.674Z,54.30
2023-01-26T07:06:39.932Z,44.72
2023-01-26T07:09:08.142Z,46.35
2023-01-26T07:11:36.498Z,45.90
2023-01-26T07:14:04.723Z,55.25
2023-01-26T07:16:34.015Z,58.25
2023-01-26T07:19:03.707Z,55.58
2023-01-26T07:21:31.997Z,36.63
2023-01-26T07:24:03.428Z,54.00
2023-01-26T07:26:31.674Z,44.58
2023-01-26T07:28:59.945Z,41.45
2023-01-26T07:31:28.469Z,31.98
2023-01-26T07:33:57.227Z,43.65
2023-01-26T07:36:26.962Z,33.08
2023-01-26T07:38:55.273Z,37.10
2023-01-26T07:41:23.457Z,43.80
2023-01-26T07:43:51.939Z,35.83
2023-01-26T07:46:20.610Z,33.58
2023-01-26T07:48:48.920Z,38.53
2023-01-26T07:51:17.172Z,33.55
2023-01-26T07:53:49.887Z,28.30
2023-01-26T07:56:19.621Z,30.33
2023-01-26T07:58:50.875Z,33.38
2023-01-26T08:01:19.164Z,31.83
2023-01-26T08:03:47.435Z,26.63
2023-01-26T08:06:16.942Z,27.85
2023-01-26T08:08:46.617Z,21.17
2023-01-26T08:11:14.829Z,30.05
2023-01-26T08:13:43.269Z,29.02
2023-01-26T08:16:13.101Z,18.02
2023-01-26T08:18:42.076Z,20.50
2023-01-26T08:21:10.874Z,16.60
2023-01-26T08:23:39.144Z,26.65
2023-01-26T08:26:10.200Z,17.02
2023-01-26T08:28:38.825Z,28.05
2023-01-26T08:31:07.487Z,15.48
2023-01-26T08:33:36.110Z,15.90
2023-01-26T08:36:04.516Z,18.63
2023-01-26T08:38:33.053Z,17.02
2023-01-26T08:41:01.925Z,18.27
2023-01-26T08:43:31.665Z,19.65
2023-01-26T08:46:00.161Z,18.10
2023-01-26T08:48:28.661Z,18.52
2023-01-26T08:50:57.535Z,16.38
2023-01-26T08:53:26.005Z,18.05
2023-01-26T08:55:54.440Z,22.63
2023-01-26T08:58:22.770Z,11.88
2023-01-26T09:00:52.438Z,15.25
2023-01-26T09:03:20.662Z,9.45
2023-01-26T09:05:49.039Z,16.73
2023-01-26T09:08:17.296Z,13.93
2023-01-26T09:10:46.025Z,13.15
2023-01-26T09:13:14.301Z,14.40
2023-01-26T09:15:42.572Z,13.23
2023-01-26T09:18:12.708Z,13.38
2023-01-26T09:20:41.089Z,14.38
2023-01-26T09:23:10.236Z,17.98
2023-01-26T09:25:38.636Z,13.60
2023-01-26T09:28:07.417Z,23.35
2023-01-26T09:30:35.732Z,13.27
2023-01-26T09:33:05.745Z,14.18
2023-01-26T09:35:35.422Z,23.13
2023-01-26T09:38:03.621Z,16.45
2023-01-26T09:40:37.660Z,26.10
2023-01-26T09:43:17.037Z,12.98
2023-01-26T09:45:48.413Z,17.15
2023-01-26T09:48:25.237Z,16.73
2023-01-26T09:50:57.414Z,16.15
2023-01-26T09:53:27.749Z,17.85
2023-01-26T09:55:56.707Z,20.83
2023-01-26T09:58:30.829Z,10.80
2023-01-26T10:01:00.582Z,12.25
2023-01-26T10:03:32.532Z,20.27
2023-01-26T10:06:06.009Z,20.92
2023-01-26T10:08:53.317Z,16.20
2023-01-26T10:11:26.369Z,19.63
2023-01-26T10:13:57.734Z,19.88
2023-01-26T10:16:26.163Z,20.02
2023-01-26T10:18:56.066Z,18.33
2023-01-26T10:21:27.237Z,18.58
2023-01-26T10:23:55.989Z,20.85
2023-01-26T10:26:25.171Z,20.50
2023-01-26T10:28:54.116Z,21.52
2023-01-26T10:31:24.029Z,12.50
2023-01-26T10:33:54.220Z,19.77
2023-01-26T10:36:22.538Z,16.60
2023-01-26T10:38:52.758Z,15.15
2023-01-26T10:41:25.673Z,11.10
2023-01-26T10:43:54.864Z,13.95
2023-01-26T10:46:28.615Z,18.98
2023-01-26T10:48:57.831Z,14.15
2023-01-26T10:51:27.640Z,20.85
2023-01-26T10:54:10.905Z,15.15
2023-01-26T10:56:45.464Z,15.98
2023-01-26T10:59:17.166Z,16.67
2023-01-26T11:01:55.442Z,13.75
2023-01-26T11:04:24.300Z,13.57
2023-01-26T11:06:52.999Z,15.27
2023-01-26T11:09:22.529Z,15.13
2023-01-26T11:12:00.571Z,12.77
2023-01-26T11:14:29.765Z,21.23
2023-01-26T11:17:01.283Z,14.73
2023-01-26T11:19:44.779Z,10.30
2023-01-26T11:22:15.109Z,12.65
2023-01-26T11:24:45.292Z,6.88
2023-01-26T11:27:24.321Z,21.55
2023-01-26T11:29:58.776Z,9.70
2023-01-26T11:32:31.448Z,15.52
2023-01-26T11:35:10.130Z,8.55
2023-01-26T11:37:41.797Z,14.18
2023-01-26T11:40:16.191Z,14.57
2023-01-26T11:42:50.424Z,12.75
2023-01-26T11:45:22.690Z,15.38
2023-01-26T11:47:57.150Z,8.75
2023-01-26T11:50:28.422Z,17.70
2023-01-26T11:53:03.910Z,6.75
2023-01-26T11:55:39.736Z,19.85
2023-01-26T11:58:21.429Z,11.25
2023-01-26T12:00:51.446Z,7.07
2023-01-26T12:03:22.720Z,8.25
2023-01-26T12:05:53.782Z,16.55
2023-01-26T12:08:24.036Z,6.10
2023-01-26T12:10:57.069Z,12.43
2023-01-26T12:13:31.775Z,14.77
2023-01-26T12:16:02.345Z,6.30
2023-01-26T12:18:48.867Z,9.65
2023-01-26T12:21:22.094Z,10.80
2023-01-26T12:23:52.384Z,11.57
2023-01-26T12:26:22.530Z,12.70
2023-01-26T12:28:55.021Z,13.57
2023-01-26T12:31:25.881Z,8.88
2023-01-26T12:33:55.256Z,10.55
2023-01-26T12:36:28.657Z,16.20
2023-01-26T12:39:09.144Z,9.15
2023-01-26T12:41:40.698Z,10.43
2023-01-26T12:44:17.378Z,10.77
2023-01-26T12:46:48.086Z,12.40
2023-01-26T12:49:18.202Z,11.18
2023-01-26T12:51:49.115Z,12.52
2023-01-26T12:54:19.667Z,12.55
2023-01-26T12:56:48.991Z,8.70
2023-01-26T12:59:38.898Z,16.95
2023-01-26T13:02:22.175Z,9.75
2023-01-26T13:04:50.623Z,8.00
2023-01-26T13:07:33.010Z,10.82
2023-01-26T13:10:13.230Z,8.20
2023-01-26T13:12:48.284Z,7.47
2023-01-26T13:15:18.946Z,11.43
2023-01-26T13:17:57.408Z,21.02
2023-01-26T13:20:27.353Z,9.80
2023-01-26T13:22:55.933Z,7.97
2023-01-26T13:25:31.218Z,12.25
2023-01-26T13:28:00.916Z,9.15
2023-01-26T13:30:34.666Z,11.75
2023-01-26T13:33:21.046Z,7.28
2023-01-26T13:35:49.896Z,9.93
2023-01-26T13:38:24.428Z,12.15
2023-01-26T13:40:52.715Z,8.50
2023-01-26T13:43:27.281Z,8.68
2023-01-26T13:46:04.938Z,8.07
2023-01-26T13:48:38.371Z,5.78
2023-01-26T13:51:08.127Z,4.45
2023-01-26T13:53:37.677Z,10.20
2023-01-26T13:56:06.888Z,1.90
2023-01-26T13:58:35.951Z,6.32
2023-01-26T14:01:06.604Z,9.90
2023-01-26T14:03:34.875Z,12.35
2023-01-26T14:06:04.486Z,7.95
2023-01-26T14:08:33.559Z,6.32
2023-01-26T14:11:03.348Z,10.07
2023-01-26T14:13:33.648Z,9.07
2023-01-26T14:16:05.860Z,4.93
2023-01-26T14:18:35.548Z,8.60
2023-01-26T14:21:05.052Z,4.43
2023-01-26T14:23:35.367Z,8.60
2023-01-26T14:26:04.352Z,8.85
2023-01-26T14:28:34.392Z,5.05
2023-01-26T14:31:06.276Z,4.53
2023-01-26T14:33:38.040Z,7.97
2023-01-26T14:36:07.180Z,5.18
2023-01-26T14:38:43.801Z,12.45
2023-01-26T14:41:14.973Z,3.50
2023-01-26T14:43:43.473Z,5.38
2023-01-26T14:46:14.830Z,4.40
2023-01-26T14:48:46.997Z,9.32
2023-01-26T14:51:18.631Z,6.90
2023-01-26T14:53:50.660Z,8.02
2023-01-26T14:56:20.235Z,5.47
2023-01-26T14:58:51.806Z,6.13
2023-01-26T15:01:23.537Z,6.93
2023-01-26T15:03:59.269Z,3.90
2023-01-26T15:06:28.786Z,7.85
2023-01-26T15:08:58.731Z,8.23
2023-01-26T15:11:55.270Z,8.80
2023-01-26T15:14:34.726Z,5.63
2023-01-26T15:17:02.955Z,5.53
2023-01-26T15:19:39.800Z,6.35
2023-01-26T15:22:17.595Z,9.02
2023-01-26T15:24:46.840Z,4.50
2023-01-26T15:27:15.601Z,9.48
2023-01-26T15:29:44.096Z,3.50
2023-01-26T15:32:29.114Z,4.43
2023-01-26T15:35:06.491Z,2.72
2023-01-26T15:37:36.179Z,5.38
2023-01-26T15:40:04.818Z,5.65
2023-01-26T15:42:33.319Z,9.57
2023-01-26T15:45:01.672Z,5.55
2023-01-26T15:47:29.985Z,3.65
2023-01-26T15:49:58.757Z,5.68
2023-01-26T15:52:30.405Z,7.50
2023-01-26T15:54:58.913Z,3.00
2023-01-26T15:57:27.264Z,4.22
2023-01-26T15:59:55.452Z,8.65
2023-01-26T16:02:23.807Z,1.95
2023-01-26T16:04:52.022Z,5.63
2023-01-26T16:07:20.447Z,5.50
2023-01-26T16:09:51.801Z,4.35
2023-01-26T16:12:33.790Z,4.38
2023-01-26T16:15:02.696Z,4.80
2023-01-26T16:17:30.975Z,6.15
2023-01-26T16:20:00.262Z,5.60
2023-01-26T16:22:28.726Z,7.80
2023-01-26T16:24:58.570Z,6.50
2023-01-26T16:27:26.921Z,2.03
2023-01-26T16:29:55.138Z,5.05
2023-01-26T16:32:28.300Z,2.67
2023-01-26T16:34:57.117Z,0.90
2023-01-26T16:37:25.347Z,6.30
2023-01-26T16:39:53.632Z,9.93
2023-01-26T16:42:23.395Z,7.38
2023-01-26T16:44:51.665Z,3.30
2023-01-26T16:47:19.972Z,8.20
2023-01-26T16:49:48.377Z,5.78
2023-01-26T16:52:16.684Z,8.80
2023-01-26T16:54:45.710Z,8.95
2023-01-26T16:57:14.076Z,9.00
2023-01-26T16:59:43.686Z,7.65
2023-01-26T17:02:25.408Z,4.35
2023-01-26T17:04:54.018Z,2.80
2023-01-26T17:07:22.288Z,6.47
2023-01-26T17:09:50.811Z,8.15
2023-01-26T17:12:19.161Z,6.38
2023-01-26T17:14:48.821Z,6.38
2023-01-26T17:17:17.092Z,5.13
2023-01-26T17:19:45.480Z,5.53
2023-01-26T17:22:13.817Z,4.75
2023-01-26T17:24:42.630Z,8.43
2023-01-26T17:27:11.939Z,7.68
2023-01-26T17:29:42.113Z,9.55
2023-01-26T17:32:11.871Z,11.95
2023-01-26T17:34:40.359Z,9.02
2023-01-26T17:37:08.587Z,9.50
2023-01-26T17:39:36.997Z,10.38
2023-01-26T17:42:05.420Z,9.95
2023-01-26T17:44:33.653Z,12.70
2023-01-26T17:47:01.854Z,6.90
2023-01-26T17:49:31.573Z,8.80
2023-01-26T17:51:59.800Z,12.60
2023-01-26T17:54:27.992Z,4.00
2023-01-26T17:56:56.765Z,6.57
2023-01-26T17:59:25.531Z,5.57
2023-01-26T18:01:53.761Z,10.88
2023-01-26T18:04:22.136Z,4.80
2023-01-26T18:06:51.650Z,4.80
2023-01-26T18:09:19.854Z,13.68
2023-01-26T18:11:48.216Z,9.73
2023-01-26T18:14:16.485Z,8.52
2023-01-26T18:16:44.787Z,5.65
2023-01-26T18:19:13.158Z,11.07
2023-01-26T18:21:41.402Z,6.32
2023-01-26T18:24:11.594Z,6.90
2023-01-26T18:26:40.191Z,3.65
2023-01-26T18:29:08.808Z,7.47
2023-01-26T18:31:37.782Z,8.63
2023-01-26T18:34:06.257Z,8.90
2023-01-26T18:36:34.466Z,7.72
2023-01-26T18:39:03.523Z,7.07
2023-01-26T18:41:33.424Z,6.30
2023-01-26T18:44:03.074Z,7.10
2023-01-26T18:46:31.805Z,4.97
2023-01-26T18:49:01.291Z,12.60
2023-01-26T18:51:29.811Z,6.53
2023-01-26T18:53:58.113Z,12.55
2023-01-26T18:56:27.062Z,7.40
2023-01-26T18:58:56.925Z,8.68
2023-01-26T19:01:26.042Z,9.05
2023-01-26T19:03:58.752Z,9.40
2023-01-26T19:06:28.466Z,6.82
2023-01-26T19:08:58.928Z,13.10
2023-01-26T19:11:28.648Z,7.60
2023-01-26T19:13:58.815Z,8.02
2023-01-26T19:16:27.375Z,8.82
2023-01-26T19:18:56.210Z,11.32
2023-01-26T19:21:25.206Z,10.48
2023-01-26T19:23:54.420Z,11.77
2023-01-26T19:26:23.522Z,8.52
2023-01-26T19:28:51.829Z,10.48
2023-01-26T19:31:22.154Z,4.95
2023-01-26T19:33:54.512Z,10.40
2023-01-26T19:36:23.543Z,7.90
2023-01-26T19:38:51.883Z,9.95
2023-01-26T19:41:20.545Z,4.85
2023-01-26T19:43:49.156Z,11.25
2023-01-26T19:46:17.876Z,7.50
2023-01-26T19:48:47.693Z,4.60
2023-01-26T19:51:17.515Z,7.70
2023-01-26T19:53:46.844Z,11.02
2023-01-26T19:56:17.517Z,9.05
2023-01-26T19:58:46.144Z,6.43
2023-01-26T20:01:14.624Z,8.30
2023-01-26T20:03:42.925Z,8.52
2023-01-26T20:06:17.289Z,10.55
2023-01-26T20:08:45.919Z,14.13
2023-01-26T20:11:14.327Z,8.90
2023-01-26T20:13:42.579Z,6.82
2023-01-26T20:16:11.565Z,9.02
2023-01-26T20:18:40.108Z,9.18
2023-01-26T20:21:08.625Z,9.65
2023-01-26T20:23:45.560Z,10.27
2023-01-26T20:26:20.333Z,10.82
2023-01-26T20:28:48.668Z,8.15
2023-01-26T20:31:18.272Z,9.02
2023-01-26T20:33:48.884Z,6.65
2023-01-26T20:36:18.583Z,12.02
2023-01-26T20:38:49.532Z,7.97
2023-01-26T20:41:19.322Z,7.18
2023-01-26T20:44:03.106Z,7.18
2023-01-26T20:46:32.736Z,15.00
2023-01-26T20:49:01.404Z,9.43
2023-01-26T20:51:30.983Z,10.35
2023-01-26T20:54:00.838Z,5.55
2023-01-26T20:56:29.732Z,7.70
2023-01-26T20:58:58.007Z,15.18
2023-01-26T21:01:26.542Z,13.20
2023-01-26T21:03:54.755Z,9.50
2023-01-26T21:06:24.115Z,11.93
2023-01-26T21:08:54.122Z,7.47
2023-01-26T21:11:25.155Z,7.88
2023-01-26T21:13:53.393Z,5.80
2023-01-26T21:16:23.008Z,8.63
2023-01-26T21:18:51.649Z,7.00
2023-01-26T21:21:21.436Z,8.07
2023-01-26T21:23:49.773Z,7.53
2023-01-26T21:26:21.803Z,10.02
2023-01-26T21:28:52.669Z,13.48
2023-01-26T21:31:21.651Z,9.32
2023-01-26T21:33:50.711Z,13.63
2023-01-26T21:36:20.755Z,11.07
2023-01-26T21:38:50.906Z,7.00
2023-01-26T21:41:37.274Z,13.57
2023-01-26T21:44:07.958Z,5.40
2023-01-26T21:46:36.884Z,21.27
2023-01-26T21:49:05.175Z,7.10
2023-01-26T21:51:51.493Z,11.50
2023-01-26T21:54:20.296Z,13.68
2023-01-26T21:56:48.512Z,16.50
2023-01-26T21:59:17.767Z,15.50
2023-01-26T22:01:46.701Z,14.35
2023-01-26T22:04:16.150Z,19.23
2023-01-26T22:06:44.744Z,9.20
2023-01-26T22:09:14.085Z,11.07
2023-01-26T22:11:42.364Z,15.27
2023-01-26T22:14:14.479Z,12.13
2023-01-26T22:16:44.435Z,16.95
2023-01-26T22:19:12.928Z,12.38
2023-01-26T22:21:41.230Z,16.27
2023-01-26T22:24:11.900Z,12.88
2023-01-26T22:26:40.429Z,13.77
2023-01-26T22:29:09.019Z,13.48
2023-01-26T22:31:37.357Z,16.67
2023-01-26T22:34:08.220Z,16.30
2023-01-26T22:36:36.536Z,5.93
2023-01-26T22:39:04.811Z,16.27
2023-01-26T22:41:34.267Z,13.25
2023-01-26T22:44:02.812Z,17.88
2023-01-26T22:46:31.770Z,11.70
2023-01-26T22:49:00.958Z,10.18
2023-01-26T22:51:31.499Z,12.07
2023-01-26T22:54:00.727Z,12.77
2023-01-26T22:56:29.728Z,14.38
2023-01-26T22:59:00.327Z,18.95
2023-01-26T23:01:29.815Z,7.80
2023-01-26T23:03:59.073Z,11.07
2023-01-26T23:06:27.956Z,10.00
2023-01-26T23:09:01.011Z,12.80
2023-01-26T23:11:30.022Z,19.88
2023-01-26T23:13:59.817Z,7.93
2023-01-26T23:16:28.708Z,11.13
2023-01-26T23:18:57.745Z,10.50
2023-01-26T23:21:26.893Z,10.00
2023-01-26T23:23:55.134Z,11.25
2023-01-26T23:26:25.481Z,6.18
2023-01-26T23:28:53.909Z,9.18
2023-01-26T23:31:22.480Z,11.10
2023-01-26T23:33:50.801Z,8.68
2023-01-26T23:36:20.714Z,11.52
2023-01-26T23:38:48.963Z,13.25
2023-01-26T23:41:17.427Z,12.63
2023-01-26T23:43:47.153Z,14.45
2023-01-26T23:46:15.345Z,7.97
2023-01-26T23:48:43.525Z,12.57
2023-01-26T23:51:12.777Z,9.65
2023-01-26T23:53:41.092Z,9.90
2023-01-26T23:56:10.026Z,17.95
2023-01-26T23:58:38.682Z,9.98
